createdAt,value
2023-02-11T00:00:15.655Z,14.11
2023-02-11T00:02:42.553Z,14.14
2023-02-11T00:05:09.565Z,14.04
2023-02-11T00:07:36.308Z,14.12
2023-02-11T00:10:04.361Z,14.11
2023-02-11T00:12:30.907Z,13.99
2023-02-11T00:14:57.529Z,14.04
2023-02-11T00:17:24.138Z,14.00
2023-02-11T00:19:53.787Z,14.05
2023-02-11T00:22:20.704Z,14.05
2023-02-11T00:24:47.564Z,14.05
2023-02-11T00:27:14.142Z,13.97
2023-02-11T00:29:40.691Z,13.95
2023-02-11T00:32:08.872Z,14.04
2023-02-11T00:34:36.882Z,13.99
2023-02-11T00:37:03.598Z,13.95
2023-02-11T00:39:30.339Z,13.95
2023-02-11T00:41:57.581Z,13.97
2023-02-11T00:44:24.536Z,14.00
2023-02-11T00:46:51.056Z,13.92
2023-02-11T00:49:17.685Z,13.99
2023-02-11T00:51:44.253Z,13.93
2023-02-11T00:54:10.888Z,13.95
2023-02-11T00:56:37.490Z,13.94
2023-02-11T00:59:04.063Z,13.90
2023-02-11T01:01:30.658Z,13.89
2023-02-11T01:03:57.206Z,13.87
2023-02-11T01:06:23.871Z,13.90
2023-02-11T01:08:50.450Z,13.91
2023-02-11T01:11:19.449Z,13.88
2023-02-11T01:13:47.804Z,13.94
2023-02-11T01:16:14.935Z,13.93
2023-02-11T01:18:44.278Z,13.92
2023-02-11T01:21:11.397Z,13.88
2023-02-11T01:23:37.981Z,13.86
2023-02-11T01:26:05.068Z,13.88
2023-02-11T01:28:32.204Z,13.82
2023-02-11T01:31:00.533Z,13.86
2023-02-11T01:33:27.113Z,13.80
2023-02-11T01:35:53.834Z,13.87
2023-02-11T01:38:23.458Z,13.87
2023-02-11T01:40:53.533Z,13.80
2023-02-11T01:43:20.438Z,13.79
2023-02-11T01:45:49.914Z,13.87
2023-02-11T01:48:38.731Z,13.86
2023-02-11T01:51:43.552Z,13.82
2023-02-11T01:54:32.721Z,13.83
2023-02-11T01:57:19.592Z,13.84
2023-02-11T01:59:49.308Z,13.84
2023-02-11T02:02:20.010Z,13.86
2023-02-11T02:04:58.209Z,13.82
2023-02-11T02:07:53.836Z,13.86
2023-02-11T02:10:24.395Z,13.83
2023-02-11T02:12:51.001Z,13.79
2023-02-11T02:15:33.914Z,13.86
2023-02-11T02:18:36.710Z,13.85
2023-02-11T02:21:40.611Z,13.85
2023-02-11T02:24:14.232Z,13.85
2023-02-11T02:27:18.184Z,13.84
2023-02-11T02:30:08.815Z,13.78
2023-02-11T02:32:43.224Z,13.83
2023-02-11T02:35:26.313Z,13.84
2023-02-11T02:38:05.627Z,13.83
2023-02-11T02:40:40.213Z,13.83
2023-02-11T02:43:09.000Z,13.83
2023-02-11T02:45:35.666Z,13.83
2023-02-11T02:48:02.432Z,13.82
2023-02-11T02:50:33.694Z,13.84
2023-02-11T02:53:27.917Z,13.83
2023-02-11T02:56:12.885Z,13.84
2023-02-11T02:58:52.390Z,13.82
2023-02-11T03:01:39.265Z,13.82
2023-02-11T03:04:24.334Z,13.83
2023-02-11T03:06:50.805Z,13.83
2023-02-11T03:09:30.173Z,13.82
2023-02-11T03:11:56.899Z,13.80
2023-02-11T03:14:27.147Z,13.81
2023-02-11T03:16:57.346Z,13.81
2023-02-11T03:19:29.729Z,13.79
2023-02-11T03:21:57.395Z,13.79
2023-02-11T03:24:34.552Z,13.78
2023-02-11T03:27:16.718Z,13.76
2023-02-11T03:30:00.800Z,13.78
2023-02-11T03:32:30.829Z,13.77
2023-02-11T03:35:07.259Z,13.76
2023-02-11T03:37:40.976Z,13.74
2023-02-11T03:40:32.562Z,13.75
2023-02-11T03:43:05.662Z,13.74
2023-02-11T03:45:32.848Z,13.75
2023-02-11T03:48:09.354Z,13.73
2023-02-11T03:50:37.375Z,13.72
2023-02-11T03:53:05.224Z,13.72
2023-02-11T03:55:36.671Z,13.74
2023-02-11T03:58:03.368Z,13.73
2023-02-11T04:00:36.598Z,13.73
2023-02-11T04:03:04.112Z,13.72
2023-02-11T04:05:30.729Z,13.71
2023-02-11T04:07:57.337Z,13.70
2023-02-11T04:10:23.925Z,13.69
2023-02-11T04:12:50.525Z,13.70
2023-02-11T04:15:17.073Z,13.69
2023-02-11T04:17:43.753Z,13.69
2023-02-11T04:20:11.613Z,13.70
2023-02-11T04:22:38.626Z,13.69
2023-02-11T04:25:06.412Z,13.70
2023-02-11T04:27:33.025Z,13.68
2023-02-11T04:29:59.596Z,13.69
2023-02-11T04:32:26.131Z,13.69
2023-02-11T04:34:53.043Z,13.66
2023-02-11T04:37:19.786Z,13.66
2023-02-11T04:39:46.331Z,13.64
2023-02-11T04:42:12.999Z,13.66
2023-02-11T04:44:39.568Z,13.65
2023-02-11T04:47:06.092Z,13.65
2023-02-11T04:49:32.642Z,13.67
2023-02-11T04:51:59.242Z,13.68
2023-02-11T04:54:25.759Z,13.66
2023-02-11T04:56:52.284Z,13.66
2023-02-11T04:59:18.859Z,13.66
2023-02-11T05:01:45.437Z,13.64
2023-02-11T05:04:11.976Z,13.65
2023-02-11T05:06:39.875Z,13.65
2023-02-11T05:09:06.733Z,13.63
2023-02-11T05:11:33.657Z,13.63
2023-02-11T05:14:00.252Z,13.64
2023-02-11T05:16:26.980Z,13.63
2023-02-11T05:18:55.709Z,13.63
2023-02-11T05:21:22.632Z,13.64
2023-02-11T05:23:49.186Z,13.63
2023-02-11T05:26:15.832Z,13.63
2023-02-11T05:28:43.351Z,13.63
2023-02-11T05:31:10.767Z,13.62
2023-02-11T05:33:37.620Z,13.61
2023-02-11T05:36:08.260Z,13.58
2023-02-11T05:38:35.347Z,13.59
2023-02-11T05:41:03.132Z,13.59
2023-02-11T05:43:29.978Z,13.57
2023-02-11T05:45:57.196Z,13.59
2023-02-11T05:48:23.876Z,13.58
2023-02-11T05:50:50.450Z,13.58
2023-02-11T05:53:17.062Z,13.59
2023-02-11T05:55:44.069Z,13.58
2023-02-11T05:58:10.907Z,13.58
2023-02-11T06:00:37.900Z,13.60
2023-02-11T06:03:04.672Z,13.57
2023-02-11T06:05:31.939Z,13.60
2023-02-11T06:07:58.722Z,13.59
2023-02-11T06:10:25.815Z,13.58
2023-02-11T06:12:52.525Z,13.59
2023-02-11T06:15:19.111Z,13.59
2023-02-11T06:17:45.627Z,13.59
2023-02-11T06:20:12.493Z,13.58
2023-02-11T06:22:39.170Z,13.59
2023-02-11T06:25:06.075Z,13.58
2023-02-11T06:27:32.660Z,13.58
2023-02-11T06:29:59.211Z,13.55
2023-02-11T06:32:45.464Z,13.58
2023-02-11T06:35:12.706Z,13.54
2023-02-11T06:37:40.139Z,13.54
2023-02-11T06:40:07.416Z,13.55
2023-02-11T06:42:36.095Z,13.53
2023-02-11T06:45:02.781Z,13.51
2023-02-11T06:47:29.338Z,13.57
2023-02-11T06:49:55.875Z,13.55
2023-02-11T06:52:22.485Z,13.55
2023-02-11T06:54:48.987Z,13.57
2023-02-11T06:57:15.495Z,13.57
2023-02-11T06:59:42.183Z,13.55
2023-02-11T07:02:11.712Z,13.57
2023-02-11T07:04:38.308Z,13.54
2023-02-11T07:07:04.865Z,13.56
2023-02-11T07:09:31.403Z,13.55
2023-02-11T07:11:57.940Z,13.58
2023-02-11T07:14:24.723Z,13.60
2023-02-11T07:16:51.297Z,13.62
2023-02-11T07:19:17.853Z,13.63
2023-02-11T07:21:44.388Z,13.62
2023-02-11T07:24:11.517Z,13.66
2023-02-11T07:26:38.825Z,13.67
2023-02-11T07:29:05.542Z,13.69
2023-02-11T07:31:33.105Z,13.69
2023-02-11T07:34:01.914Z,13.69
2023-02-11T07:36:31.852Z,13.71
2023-02-11T07:38:58.591Z,13.72
2023-02-11T07:41:27.634Z,13.73
2023-02-11T07:43:54.752Z,13.73
2023-02-11T07:46:27.177Z,13.74
2023-02-11T07:48:54.157Z,13.74
2023-02-11T07:51:24.492Z,13.75
2023-02-11T07:53:52.134Z,13.74
2023-02-11T07:56:20.102Z,13.77
2023-02-11T07:58:47.130Z,13.78
2023-02-11T08:01:19.009Z,13.79
2023-02-11T08:03:45.842Z,13.79
2023-02-11T08:06:15.054Z,13.80
2023-02-11T08:08:42.518Z,13.83
2023-02-11T08:11:12.164Z,13.84
2023-02-11T08:13:38.828Z,13.86
2023-02-11T08:16:06.296Z,13.87
2023-02-11T08:18:33.588Z,13.90
2023-02-11T08:21:07.650Z,13.93
2023-02-11T08:23:38.092Z,13.95
2023-02-11T08:26:13.544Z,13.98
2023-02-11T08:28:42.298Z,14.01
2023-02-11T08:31:11.483Z,14.02
2023-02-11T08:33:40.327Z,14.05
2023-02-11T08:36:12.469Z,14.05
2023-02-11T08:38:39.092Z,14.06
2023-02-11T08:41:06.178Z,14.09
2023-02-11T08:43:33.454Z,14.08
2023-02-11T08:46:02.190Z,14.09
2023-02-11T08:48:29.809Z,14.11
2023-02-11T08:50:56.928Z,14.12
2023-02-11T08:53:23.663Z,14.10
2023-02-11T08:55:55.361Z,14.12
2023-02-11T08:58:22.349Z,14.11
2023-02-11T09:00:50.585Z,14.14
2023-02-11T09:03:18.050Z,14.14
2023-02-11T09:05:50.154Z,14.13
2023-02-11T09:08:17.111Z,14.14
2023-02-11T09:10:43.688Z,14.14
2023-02-11T09:13:10.488Z,14.16
2023-02-11T09:15:37.281Z,14.13
2023-02-11T09:18:04.393Z,14.15
2023-02-11T09:20:31.391Z,14.14
2023-02-11T09:22:59.195Z,14.15
2023-02-11T09:25:25.871Z,14.12
2023-02-11T09:27:53.782Z,14.13
2023-02-11T09:30:20.750Z,14.14
2023-02-11T09:32:47.392Z,14.14
2023-02-11T09:35:14.054Z,14.13
2023-02-11T09:37:40.629Z,14.14
2023-02-11T09:40:07.696Z,14.14
2023-02-11T09:42:44.278Z,14.17
2023-02-11T09:45:20.543Z,14.21
2023-02-11T09:47:52.812Z,14.23
2023-02-11T09:50:27.931Z,14.25
2023-02-11T09:53:22.780Z,14.27
2023-02-11T09:55:55.760Z,14.30
2023-02-11T09:58:31.982Z,14.33
2023-02-11T10:01:04.691Z,14.37
2023-02-11T10:03:46.504Z,14.40
2023-02-11T10:06:34.344Z,14.43
2023-02-11T10:09:19.687Z,14.45
2023-02-11T10:12:11.207Z,14.47
2023-02-11T10:15:11.666Z,14.49
2023-02-11T10:18:07.622Z,14.50
2023-02-11T10:20:42.735Z,14.51
2023-02-11T10:23:22.472Z,14.50
2023-02-11T10:25:52.908Z,14.50
2023-02-11T10:28:22.160Z,14.51
2023-02-11T10:31:02.636Z,14.49
2023-02-11T10:33:37.033Z,14.49
2023-02-11T10:36:06.916Z,14.50
2023-02-11T10:38:33.947Z,14.51
2023-02-11T10:41:00.578Z,14.52
2023-02-11T10:43:29.052Z,14.55
2023-02-11T10:45:57.343Z,14.56
2023-02-11T10:48:44.102Z,14.57
2023-02-11T10:51:12.308Z,14.60
2023-02-11T10:53:40.699Z,14.60
2023-02-11T10:56:10.601Z,14.62
2023-02-11T10:58:45.906Z,14.64
2023-02-11T11:01:23.879Z,14.62
2023-02-11T11:03:52.903Z,14.64
2023-02-11T11:06:31.912Z,14.64
2023-02-11T11:08:58.996Z,14.64
2023-02-11T11:11:27.320Z,14.64
2023-02-11T11:13:53.819Z,14.68
2023-02-11T11:16:34.006Z,14.67
2023-02-11T11:19:06.548Z,14.68
2023-02-11T11:21:44.002Z,14.68
2023-02-11T11:24:27.920Z,14.68
2023-02-11T11:26:57.344Z,14.69
2023-02-11T11:29:32.799Z,14.68
2023-02-11T11:32:04.688Z,14.68
2023-02-11T11:34:38.263Z,14.69
2023-02-11T11:37:18.729Z,14.69
2023-02-11T11:39:55.811Z,14.71
2023-02-11T11:42:33.576Z,14.71
2023-02-11T11:45:19.585Z,14.74
2023-02-11T11:48:01.487Z,14.75
2023-02-11T11:50:36.853Z,14.74
2023-02-11T11:53:31.412Z,14.76
2023-02-11T11:56:05.481Z,14.77
2023-02-11T11:58:33.162Z,14.77
2023-02-11T12:01:06.482Z,14.79
2023-02-11T12:03:42.054Z,14.80
2023-02-11T12:06:20.940Z,14.80
2023-02-11T12:09:17.397Z,14.81
2023-02-11T12:11:56.223Z,14.82
2023-02-11T12:14:50.704Z,14.83
2023-02-11T12:17:37.625Z,14.84
2023-02-11T12:20:24.735Z,14.85
2023-02-11T12:22:57.299Z,14.85
2023-02-11T12:25:59.853Z,14.83
2023-02-11T12:28:29.435Z,14.85
2023-02-11T12:31:13.203Z,14.87
2023-02-11T12:33:58.901Z,14.87
2023-02-11T12:36:41.970Z,14.89
2023-02-11T12:39:16.218Z,14.90
2023-02-11T12:43:02.442Z,14.91
2023-02-11T12:45:31.696Z,14.93
2023-02-11T12:48:23.387Z,14.95
2023-02-11T12:51:35.244Z,14.97
2023-02-11T12:54:11.016Z,14.97
2023-02-11T12:56:45.595Z,14.97
2023-02-11T12:59:20.760Z,14.98
2023-02-11T13:01:50.858Z,15.00
2023-02-11T13:04:26.904Z,15.02
2023-02-11T13:07:02.348Z,15.03
2023-02-11T13:09:35.864Z,15.04
2023-02-11T13:12:24.707Z,15.06
2023-02-11T13:14:56.793Z,15.05
2023-02-11T13:17:34.848Z,15.05
2023-02-11T13:20:15.104Z,15.05
2023-02-11T13:22:57.222Z,15.07
2023-02-11T13:25:33.192Z,15.08
2023-02-11T13:28:27.651Z,15.09
2023-02-11T13:31:02.713Z,15.10
2023-02-11T13:33:45.828Z,15.09
2023-02-11T13:36:14.613Z,15.09
2023-02-11T13:38:41.761Z,15.10
2023-02-11T13:41:27.728Z,15.10
2023-02-11T13:44:08.364Z,15.12
2023-02-11T13:46:53.877Z,15.13
2023-02-11T13:49:25.284Z,15.14
2023-02-11T13:51:53.560Z,15.13
2023-02-11T13:54:24.979Z,15.16
2023-02-11T13:57:16.343Z,15.16
2023-02-11T13:59:42.795Z,15.15
2023-02-11T14:02:45.277Z,15.17
2023-02-11T14:05:45.998Z,15.13
2023-02-11T14:08:31.254Z,15.17
2023-02-11T14:11:00.601Z,15.18
2023-02-11T14:13:50.046Z,15.17
2023-02-11T14:16:28.309Z,15.20
2023-02-11T14:19:03.341Z,15.20
2023-02-11T14:21:36.648Z,15.20
2023-02-11T14:24:04.915Z,15.21
2023-02-11T14:26:53.196Z,15.22
2023-02-11T14:29:31.502Z,15.23
2023-02-11T14:32:13.439Z,15.23
2023-02-11T14:35:08.140Z,15.24
2023-02-11T14:37:52.858Z,15.24
2023-02-11T14:40:25.881Z,15.26
2023-02-11T14:42:54.388Z,15.27
2023-02-11T14:45:25.637Z,15.27
2023-02-11T14:48:05.579Z,15.30
2023-02-11T14:50:40.420Z,15.32
2023-02-11T14:53:07.986Z,15.32
2023-02-11T14:55:38.043Z,15.33
2023-02-11T14:58:16.740Z,15.35
2023-02-11T15:00:55.540Z,15.36
2023-02-11T15:03:31.158Z,15.37
2023-02-11T15:06:16.458Z,15.38
2023-02-11T15:08:56.556Z,15.38
2023-02-11T15:11:25.371Z,15.37
2023-02-11T15:13:55.372Z,15.37
2023-02-11T15:16:28.585Z,15.40
2023-02-11T15:19:00.606Z,15.40
2023-02-11T15:21:30.484Z,15.39
2023-02-11T15:24:06.038Z,15.41
2023-02-11T15:26:33.478Z,15.38
2023-02-11T15:29:00.790Z,15.39
2023-02-11T15:31:28.283Z,15.41
2023-02-11T15:33:55.426Z,15.41
2023-02-11T15:36:28.676Z,15.42
2023-02-11T15:39:47.585Z,15.41
2023-02-11T15:42:28.208Z,15.41
2023-02-11T15:45:16.570Z,15.40
2023-02-11T15:47:49.506Z,15.42
2023-02-11T15:50:25.783Z,15.42
2023-02-11T15:52:53.664Z,15.42
2023-02-11T15:55:21.107Z,15.40
2023-02-11T15:57:57.583Z,15.41
2023-02-11T16:00:30.199Z,15.41
2023-02-11T16:02:56.784Z,15.43
2023-02-11T16:05:35.817Z,15.42
2023-02-11T16:08:22.333Z,15.42
2023-02-11T16:11:24.705Z,15.41
2023-02-11T16:13:51.260Z,15.41
2023-02-11T16:19:04.606Z,15.41
2023-02-11T16:21:39.262Z,15.43
2023-02-11T16:24:08.019Z,15.43
2023-02-11T16:26:43.161Z,15.46
2023-02-11T16:29:12.554Z,15.48
2023-02-11T16:31:42.610Z,15.46
2023-02-11T16:34:28.433Z,15.47
2023-02-11T16:36:55.042Z,15.48
2023-02-11T16:39:22.509Z,15.48
2023-02-11T16:41:52.701Z,15.48
2023-02-11T16:44:19.930Z,15.48
2023-02-11T16:46:46.561Z,15.46
2023-02-11T16:49:31.353Z,15.46
2023-02-11T16:52:05.523Z,15.45
2023-02-11T16:54:32.572Z,15.43
2023-02-11T16:56:59.268Z,15.42
2023-02-11T16:59:26.024Z,15.43
2023-02-11T17:01:53.803Z,15.42
2023-02-11T17:04:25.460Z,15.40
2023-02-11T17:06:52.231Z,15.39
2023-02-11T17:09:22.073Z,15.40
2023-02-11T17:11:49.416Z,15.38
2023-02-11T17:14:16.321Z,15.37
2023-02-11T17:16:43.873Z,15.37
2023-02-11T17:19:13.240Z,15.38
2023-02-11T17:21:44.425Z,15.36
2023-02-11T17:24:11.643Z,15.37
2023-02-11T17:26:39.361Z,15.37
2023-02-11T17:29:07.747Z,15.36
2023-02-11T17:31:35.201Z,15.34
2023-02-11T17:34:02.004Z,15.33
2023-02-11T17:36:31.315Z,15.35
2023-02-11T17:38:58.880Z,15.33
2023-02-11T17:41:25.747Z,15.33
2023-02-11T17:43:52.582Z,15.34
2023-02-11T17:46:19.301Z,15.33
2023-02-11T17:48:46.074Z,15.32
2023-02-11T17:51:31.552Z,15.34
2023-02-11T17:54:01.295Z,15.32
2023-02-11T17:56:29.922Z,15.34
2023-02-11T17:58:56.484Z,15.33
2023-02-11T18:01:23.254Z,15.32
2023-02-11T18:03:49.862Z,15.31
2023-02-11T18:06:16.537Z,15.33
2023-02-11T18:08:43.151Z,15.30
2023-02-11T18:11:12.252Z,15.32
2023-02-11T18:13:38.853Z,15.30
2023-02-11T18:16:08.637Z,15.30
2023-02-11T18:18:35.688Z,15.30
2023-02-11T18:21:08.974Z,15.31
2023-02-11T18:23:35.956Z,15.29
2023-02-11T18:26:03.080Z,15.32
2023-02-11T18:28:29.687Z,15.29
2023-02-11T18:31:00.457Z,15.31
2023-02-11T18:33:29.713Z,15.32
2023-02-11T18:35:56.493Z,15.31
2023-02-11T18:38:23.937Z,15.30
2023-02-11T18:40:50.725Z,15.29
2023-02-11T18:43:18.294Z,15.29
2023-02-11T18:45:49.525Z,15.28
2023-02-11T18:48:17.848Z,15.30
2023-02-11T18:50:46.345Z,15.30
2023-02-11T18:53:15.920Z,15.30
2023-02-11T18:55:44.847Z,15.29
2023-02-11T18:58:11.941Z,15.29
2023-02-11T19:00:41.199Z,15.30
2023-02-11T19:03:07.820Z,15.30
2023-02-11T19:06:00.482Z,15.28
2023-02-11T19:08:27.023Z,15.29
2023-02-11T19:10:53.592Z,15.29
2023-02-11T19:13:20.149Z,15.29
2023-02-11T19:15:46.841Z,15.29
2023-02-11T19:18:15.618Z,15.29
2023-02-11T19:20:43.667Z,15.28
2023-02-11T19:23:11.027Z,15.29
2023-02-11T19:25:38.170Z,15.27
2023-02-11T19:28:04.794Z,15.28
2023-02-11T19:30:31.520Z,15.28
2023-02-11T19:32:58.394Z,15.28
2023-02-11T19:35:25.445Z,15.29
2023-02-11T19:37:52.047Z,15.30
2023-02-11T19:40:21.329Z,15.29
2023-02-11T19:42:48.292Z,15.29
2023-02-11T19:45:14.977Z,15.29
2023-02-11T19:47:41.497Z,15.28
2023-02-11T19:50:08.964Z,15.26
2023-02-11T19:52:38.352Z,15.27
2023-02-11T19:55:05.181Z,15.28
2023-02-11T19:57:31.796Z,15.28
2023-02-11T19:59:58.330Z,15.28
2023-02-11T20:02:24.991Z,15.27
2023-02-11T20:04:51.690Z,15.27
2023-02-11T20:07:18.228Z,15.28
2023-02-11T20:09:44.860Z,15.29
2023-02-11T20:12:12.096Z,15.27
2023-02-11T20:14:38.788Z,15.28
2023-02-11T20:17:05.381Z,15.28
2023-02-11T20:19:32.065Z,15.27
2023-02-11T20:21:58.649Z,15.27
2023-02-11T20:24:25.989Z,15.27
2023-02-11T20:26:55.761Z,15.28
2023-02-11T20:29:23.714Z,15.27
2023-02-11T20:31:50.574Z,15.26
2023-02-11T20:34:17.863Z,15.27
2023-02-11T20:36:51.529Z,15.27
2023-02-11T20:39:18.876Z,15.27
2023-02-11T20:41:46.141Z,15.26
2023-02-11T20:44:13.679Z,15.28
2023-02-11T20:46:42.935Z,15.26
2023-02-11T20:49:14.389Z,15.26
2023-02-11T20:51:41.521Z,15.27
2023-02-11T20:54:12.471Z,15.27
2023-02-11T20:56:39.241Z,15.24
2023-02-11T20:59:06.580Z,15.26
2023-02-11T21:01:36.390Z,15.27
2023-02-11T21:04:04.551Z,15.27
2023-02-11T21:06:34.202Z,15.27
2023-02-11T21:09:01.014Z,15.27
2023-02-11T21:11:27.651Z,15.27
2023-02-11T21:13:54.235Z,15.28
2023-02-11T21:16:21.301Z,15.27
2023-02-11T21:18:49.109Z,15.27
2023-02-11T21:21:17.400Z,15.28
2023-02-11T21:23:44.028Z,15.26
2023-02-11T21:26:10.831Z,15.28
2023-02-11T21:28:40.530Z,15.30
2023-02-11T21:31:08.333Z,15.29
2023-02-11T21:33:35.140Z,15.29
2023-02-11T21:36:04.606Z,15.27
2023-02-11T21:38:31.183Z,15.28
2023-02-11T21:41:06.073Z,15.30
2023-02-11T21:43:33.568Z,15.30
2023-02-11T21:46:00.534Z,15.29
2023-02-11T21:48:27.129Z,15.28
2023-02-11T21:50:53.684Z,15.31
2023-02-11T21:53:20.588Z,15.29
2023-02-11T21:55:47.200Z,15.30
2023-02-11T21:58:14.384Z,15.30
2023-02-11T22:00:41.064Z,15.32
2023-02-11T22:03:07.656Z,15.31
2023-02-11T22:05:34.362Z,15.30
2023-02-11T22:08:00.952Z,15.29
2023-02-11T22:10:27.535Z,15.32
2023-02-11T22:12:54.149Z,15.33
2023-02-11T22:15:20.798Z,15.33
2023-02-11T22:17:47.375Z,15.33
2023-02-11T22:20:13.997Z,15.34
2023-02-11T22:22:40.595Z,15.33
2023-02-11T22:25:07.571Z,15.33
2023-02-11T22:27:34.158Z,15.34
2023-02-11T22:30:00.881Z,15.33
2023-02-11T22:32:27.457Z,15.36
2023-02-11T22:34:54.050Z,15.36
2023-02-11T22:37:20.733Z,15.34
2023-02-11T22:39:47.412Z,15.35
2023-02-11T22:42:13.999Z,15.33
2023-02-11T22:44:40.719Z,15.36
2023-02-11T22:47:07.292Z,15.36
2023-02-11T22:49:34.422Z,15.33
2023-02-11T22:52:01.255Z,15.33
2023-02-11T22:54:28.088Z,15.34
2023-02-11T22:56:54.666Z,15.36
2023-02-11T22:59:21.711Z,15.37
2023-02-11T23:01:48.414Z,15.36
2023-02-11T23:04:17.004Z,15.35
2023-02-11T23:06:43.729Z,15.34
2023-02-11T23:09:12.401Z,15.33
2023-02-11T23:11:39.731Z,15.32
2023-02-11T23:14:08.583Z,15.32
2023-02-11T23:16:35.264Z,15.28
2023-02-11T23:19:05.601Z,15.28
2023-02-11T23:21:34.434Z,15.29
2023-02-11T23:24:04.444Z,15.28
2023-02-11T23:26:31.128Z,15.28
2023-02-11T23:28:59.101Z,15.27
2023-02-11T23:31:33.969Z,15.26
2023-02-11T23:34:01.354Z,15.24
2023-02-11T23:36:28.312Z,15.22
2023-02-11T23:38:54.868Z,15.21
2023-02-11T23:41:21.815Z,15.22
2023-02-11T23:43:53.052Z,15.19
2023-02-11T23:46:21.831Z,15.21
2023-02-11T23:48:49.585Z,15.18
2023-02-11T23:51:16.183Z,15.19
2023-02-11T23:53:43.197Z,15.18
2023-02-11T23:56:13.578Z,15.17
2023-02-11T23:58:40.269Z,15.18
